• Join FlightAware (Why Join?)
  • Login
  • US Flag 
08:56AM EDT


 

Airport Tracker/Info


-or-


 

Live Flight TrackerFlight Track Log ✈ ASQ5750 ✈ 25-Apr-2013 ✈ KCVG - KORD

Flight Track Log - Related Links

Times and Time Zones

All times are in EDT time to prevent confusion due to time zone crossing. See the ASQ5750 flight status page for this flight to view local times or setup timezone preferences in your user account.

Time Position Orientation Groundspeed Altitude Reporting Facility
EDT Latitude Longitude Course Direction KTS MPH feet Rate Location/Type
11:30AM 39.0500 -84.6833 351° North 153 176 1,500  Level Cincinnati TRACON
11:31AM 39.0500 -84.7167 270° West 162 186 2,700 2,460 Climbing Cincinnati TRACON
11:32AM 39.0667 -84.8000 284° West 260 299 5,500 2,760 Climbing Cincinnati TRACON
11:34AM 39.1986 -84.8689 338° Northwest 268 308 11,100 2,400 Climbing Indianapolis Center
11:35AM 38.9466 -84.8385 313° West  Level FlightAware Approximate
11:35AM 39.2811 -84.9217 334° Northwest 297 342 13,000  Level Indianapolis Center
11:36AM 39.0270 -84.8854 351° North  Level FlightAware Approximate
11:36AM 39.3622 -84.9700 335° Northwest 313 360 15,200  Level Indianapolis Center
11:37AM 39.4433 -85.0203 334° Northwest 320 368 16,900 1,440 Climbing Indianapolis Center
11:38AM 39.5294 -85.0731 335° Northwest 336 387 18,200 1,560 Climbing Indianapolis Center
11:39AM 39.6167 -85.1264 335° Northwest 343 395 20,200 1,800 Climbing Indianapolis Center
11:40AM 39.6981 -85.1775 334° Northwest 328 377 22,000 840 Climbing Indianapolis Center
11:41AM 39.7800 -85.2278 335° Northwest 324 373 22,000  Level Indianapolis Center
11:42AM 39.8711 -85.2853 334° Northwest 313 360 22,000  Level Indianapolis Center
11:43AM 39.9508 -85.3353 334° Northwest 315 362 22,000  Level Indianapolis Center
11:44AM 40.0292 -85.3842 334° Northwest 313 360 22,000  Level Indianapolis Center
11:45AM 40.1075 -85.4344 334° Northwest 313 360 22,000  Level Indianapolis Center
11:45AM 40.1453 -85.4569 336° Northwest 309 356 22,000  Level Chicago Center
11:46AM 40.2233 -85.5053 335° Northwest 309 356 22,000  Level Chicago Center
11:48AM 40.3014 -85.5539 335° Northwest 310 357 22,000  Level Chicago Center
11:49AM 40.3781 -85.6036 334° Northwest 307 353 22,000  Level Chicago Center
11:50AM 40.4681 -85.6606 334° Northwest 307 353 22,000  Level Chicago Center
11:51AM 40.5503 -85.7000 340° North 311 358 22,000  Level Chicago Center
11:52AM 40.6381 -85.7328 344° North 324 373 22,000  Level Chicago Center
11:53AM 40.7400 -85.7747 343° North 344 396 22,000  Level Chicago Center
11:54AM 40.8211 -85.8317 332° Northwest 338 389 22,000  Level Chicago Center
11:55AM 40.8881 -85.9203 315° West 340 391 22,000  Level Chicago Center
11:56AM 40.9592 -86.0131 315° West 355 409 22,000 -300 Level Chicago Center
11:57AM 41.0294 -86.1050 315° West 355 409 21,400 -780 Descending Chicago Center
11:58AM 41.0983 -86.1956 315° West 349 402 20,400 -1,020 Descending Chicago Center
11:59AM 41.1664 -86.2864 315° West 346 398 19,400 -1,080 Descending Chicago Center
12:00PM 41.2522 -86.4000 315° West 361 415 18,200 -1,020 Descending Chicago Center
12:01PM 41.3342 -86.4803 324° Northwest 364 419 17,400 -900 Descending Chicago Center
12:02PM 41.4147 -86.5589 324° Northwest 361 415 16,400 -1,020 Descending Chicago Center
12:03PM 41.4917 -86.6347 324° Northwest 349 402 15,400 -1,200 Descending Chicago Center
12:04PM 41.5650 -86.7053 324° Northwest 333 383 14,000 -1,560 Descending Chicago Center
12:05PM 41.6375 -86.7739 325° Northwest 324 373 12,200 -1,260 Descending Chicago Center
12:06PM 41.7406 -86.8047 347° North 329 379 11,500 -600 Descending Chicago Center
12:07PM 41.8272 -86.8214 352° North 319 367 11,000 -660 Descending Chicago Center
12:08PM 41.9011 -86.8811 329° Northwest 322 371 10,200 -480 Descending Chicago Center
12:09PM 41.9244 -86.9939 286° West 314 361 10,000 -180 Descending Chicago Center
12:10PM 41.9578 -87.1267 289° West 315 362 9,900 -900 Descending Chicago Center
12:11PM 41.9772 -87.2172 286° West 267 307 8,200 -1,440 Descending Chicago Center
12:12PM 41.9844 -87.3111 276° West 255 293 7,000 -600 Descending Chicago Center
12:13PM 41.9836 -87.4036 269° West 251 289 7,000 60 Level Chicago Center
12:14PM 41.9833 -87.4333 269° West 249 287 7,100 -420 Climbing Chicago TRACON
12:15PM 41.9833 -87.5333 270° West 230 265 6,500 -1,080 Descending Chicago TRACON
12:16PM 41.9833 -87.6167 270° West 233 268 5,000 -1,440 Descending Chicago TRACON
12:17PM 41.9833 -87.7000 270° West 219 252 3,700 -1,320 Descending Chicago TRACON